createdAt,value
2016-08-07T00:00:25.712Z,0
2016-08-07T00:01:25.738Z,0
2016-08-07T00:02:25.756Z,0
2016-08-07T00:03:25.790Z,0
2016-08-07T00:04:40.732Z,0
2016-08-07T00:05:25.827Z,0
2016-08-07T00:06:25.906Z,0
2016-08-07T00:07:25.891Z,0
2016-08-07T00:09:25.947Z,0
2016-08-07T00:10:25.963Z,0
2016-08-07T00:11:25.986Z,0
2016-08-07T00:12:26.011Z,0
2016-08-07T00:13:26.035Z,0
2016-08-07T00:14:26.061Z,0
2016-08-07T00:15:26.091Z,0
2016-08-07T00:16:26.121Z,0
2016-08-07T00:17:41.067Z,0
2016-08-07T00:18:26.160Z,0
2016-08-07T00:19:26.207Z,0
2016-08-07T00:20:41.141Z,0
2016-08-07T00:21:26.241Z,0
2016-08-07T00:22:26.265Z,0
2016-08-07T00:23:26.291Z,0
2016-08-07T00:24:26.322Z,0
2016-08-07T00:25:27.038Z,0
2016-08-07T00:26:26.426Z,0
2016-08-07T00:27:26.398Z,0
2016-08-07T00:28:26.414Z,0
2016-08-07T00:29:26.445Z,0
2016-08-07T00:30:26.472Z,0
2016-08-07T00:31:26.517Z,0
2016-08-07T00:32:26.514Z,0
2016-08-07T00:34:26.618Z,0
2016-08-07T00:35:26.599Z,0
2016-08-07T00:36:41.557Z,0
2016-08-07T00:37:26.656Z,0
2016-08-07T00:38:26.730Z,0
2016-08-07T00:39:26.695Z,0
2016-08-07T00:40:26.723Z,0
2016-08-07T00:41:26.746Z,0
2016-08-07T00:42:26.779Z,0
2016-08-07T00:43:27.500Z,0
2016-08-07T00:44:26.831Z,0
2016-08-07T00:45:26.841Z,0
2016-08-07T00:46:41.794Z,0
2016-08-07T00:47:26.901Z,0
2016-08-07T00:48:26.933Z,0
2016-08-07T00:49:26.960Z,0
2016-08-07T00:50:26.976Z,0
2016-08-07T00:51:27.038Z,0
2016-08-07T00:52:41.951Z,0
2016-08-07T00:53:27.049Z,0
2016-08-07T00:54:41.999Z,0
2016-08-07T00:55:42.061Z,0
2016-08-07T00:56:27.137Z,0
2016-08-07T00:57:27.152Z,0
2016-08-07T00:58:27.180Z,0
2016-08-07T01:00:27.292Z,0
2016-08-07T01:01:27.251Z,0
2016-08-07T01:02:27.293Z,0
2016-08-07T01:03:27.299Z,0
2016-08-07T01:04:27.339Z,0
2016-08-07T01:05:27.355Z,0
2016-08-07T01:06:27.389Z,0
2016-08-07T01:07:27.454Z,0
2016-08-07T01:08:57.279Z,0
2016-08-07T01:09:42.398Z,0
2016-08-07T01:10:27.487Z,0
2016-08-07T01:11:29.049Z,0
2016-08-07T01:12:27.519Z,0
2016-08-07T01:13:27.565Z,0
2016-08-07T01:14:27.611Z,0
2016-08-07T01:15:27.700Z,0
2016-08-07T01:16:27.626Z,0
2016-08-07T01:17:27.662Z,0
2016-08-07T01:18:27.684Z,0
2016-08-07T01:19:27.705Z,0
2016-08-07T01:21:27.753Z,0
2016-08-07T01:22:27.774Z,0
2016-08-07T01:23:42.727Z,0
2016-08-07T01:24:28.538Z,0
2016-08-07T01:25:42.780Z,0
2016-08-07T01:26:27.879Z,0
2016-08-07T01:27:28.512Z,0
2016-08-07T01:28:27.934Z,0
2016-08-07T01:29:28.047Z,0
2016-08-07T01:30:27.981Z,0
2016-08-07T01:31:28.036Z,0
2016-08-07T01:32:43.045Z,0
2016-08-07T01:33:43.183Z,0
2016-08-07T01:34:28.079Z,0
2016-08-07T01:35:28.158Z,0
2016-08-07T01:37:28.164Z,0
2016-08-07T01:38:28.186Z,0
2016-08-07T01:39:28.565Z,0
2016-08-07T01:40:58.134Z,0
2016-08-07T01:41:28.266Z,0
2016-08-07T01:42:28.973Z,0
2016-08-07T01:43:29.219Z,0
2016-08-07T01:44:28.333Z,0
2016-08-07T01:46:28.398Z,0
2016-08-07T01:47:28.416Z,0
2016-08-07T01:48:44.074Z,0
2016-08-07T01:49:28.459Z,0
2016-08-07T01:50:29.940Z,0
2016-08-07T01:51:30.164Z,0
2016-08-07T01:52:43.459Z,0
2016-08-07T01:53:29.275Z,0
2016-08-07T01:54:43.535Z,0
2016-08-07T01:55:43.538Z,0
2016-08-07T01:57:28.666Z,0
2016-08-07T01:58:28.684Z,0
2016-08-07T01:59:28.710Z,0
2016-08-07T02:01:28.758Z,0
2016-08-07T02:02:28.791Z,0
2016-08-07T02:03:28.818Z,0
2016-08-07T02:04:28.882Z,0
2016-08-07T02:05:43.797Z,0
2016-08-07T02:06:30.549Z,0
2016-08-07T02:07:43.855Z,0
2016-08-07T02:08:28.988Z,0
2016-08-07T02:09:28.970Z,0
2016-08-07T02:10:30.168Z,0
2016-08-07T02:11:58.862Z,0
2016-08-07T02:12:43.956Z,0
2016-08-07T02:13:29.220Z,0
2016-08-07T02:14:31.018Z,0
2016-08-07T02:15:29.112Z,0
2016-08-07T02:16:29.140Z,0
2016-08-07T02:17:29.592Z,0
2016-08-07T02:18:29.193Z,0
2016-08-07T02:19:29.215Z,0
2016-08-07T02:20:29.266Z,0
2016-08-07T02:21:30.100Z,0
2016-08-07T02:22:29.299Z,0
2016-08-07T02:23:44.256Z,0
2016-08-07T02:25:29.357Z,0
2016-08-07T02:26:29.385Z,0
2016-08-07T02:27:44.334Z,0
2016-08-07T02:28:29.441Z,0
2016-08-07T02:29:29.469Z,0
2016-08-07T02:30:29.625Z,0
2016-08-07T02:32:29.590Z,0
2016-08-07T02:33:29.551Z,0
2016-08-07T02:34:29.585Z,0
2016-08-07T02:35:30.790Z,0
2016-08-07T02:36:31.346Z,0
2016-08-07T02:38:29.688Z,0
2016-08-07T02:39:29.758Z,0
2016-08-07T02:40:29.741Z,0
2016-08-07T02:41:29.770Z,0
2016-08-07T02:42:29.843Z,0
2016-08-07T02:43:44.744Z,0
2016-08-07T02:44:44.776Z,0
2016-08-07T02:46:29.878Z,0
2016-08-07T02:47:44.837Z,0
2016-08-07T02:48:29.954Z,0
2016-08-07T02:50:59.840Z,0
2016-08-07T02:52:30.031Z,0
2016-08-07T02:53:30.060Z,0
2016-08-07T02:54:30.089Z,0
2016-08-07T02:55:45.036Z,0
2016-08-07T02:56:45.068Z,0
2016-08-07T02:57:30.866Z,0
2016-08-07T02:58:45.105Z,0
2016-08-07T02:59:30.207Z,0
2016-08-07T03:00:30.281Z,0
2016-08-07T03:01:45.177Z,0
2016-08-07T03:02:30.300Z,0
2016-08-07T03:03:30.316Z,0
2016-08-07T03:04:30.331Z,0
2016-08-07T03:05:31.063Z,0
2016-08-07T03:07:30.413Z,0
2016-08-07T03:08:45.355Z,0
2016-08-07T03:09:30.454Z,0
2016-08-07T03:10:30.486Z,0
2016-08-07T03:11:30.507Z,0
2016-08-07T03:12:45.453Z,0
2016-08-07T03:13:31.318Z,0
2016-08-07T03:14:31.282Z,0
2016-08-07T03:15:31.320Z,0
2016-08-07T03:16:30.626Z,0
2016-08-07T03:17:31.365Z,0
2016-08-07T03:18:30.689Z,0
2016-08-07T03:19:30.711Z,0
2016-08-07T03:20:45.654Z,0
2016-08-07T03:22:30.792Z,0
2016-08-07T03:23:30.803Z,0
2016-08-07T03:25:30.853Z,0
2016-08-07T03:26:30.889Z,0
2016-08-07T03:27:46.526Z,0
2016-08-07T03:28:30.946Z,0
2016-08-07T03:29:30.959Z,0
2016-08-07T03:31:00.830Z,5
2016-08-07T03:31:45.937Z,5
2016-08-07T03:32:31.052Z,5
2016-08-07T03:33:45.983Z,5
2016-08-07T03:34:31.087Z,5
2016-08-07T03:35:31.113Z,5
2016-08-07T03:36:46.585Z,5
2016-08-07T03:37:46.078Z,5
2016-08-07T03:38:31.193Z,5
2016-08-07T03:39:31.209Z,5
2016-08-07T03:40:31.696Z,5
2016-08-07T03:41:46.176Z,5
2016-08-07T03:43:31.353Z,5
2016-08-07T03:44:46.265Z,5
2016-08-07T03:46:46.303Z,5
2016-08-07T03:47:46.438Z,10
2016-08-07T03:48:31.427Z,10
2016-08-07T03:49:31.446Z,10
2016-08-07T03:50:31.479Z,10
2016-08-07T03:52:31.550Z,15
2016-08-07T03:55:31.610Z,20
2016-08-07T03:56:31.624Z,20
2016-08-07T03:57:31.661Z,20
2016-08-07T03:58:31.671Z,25
2016-08-07T03:59:31.698Z,25
2016-08-07T04:00:32.085Z,25
2016-08-07T04:01:47.362Z,30
2016-08-07T04:02:46.700Z,30
2016-08-07T04:03:31.810Z,30
2016-08-07T04:04:31.825Z,35
2016-08-07T04:05:31.851Z,40
2016-08-07T04:06:31.875Z,40
2016-08-07T04:08:31.920Z,45
2016-08-07T04:10:32.034Z,50
2016-08-07T04:11:31.997Z,45
2016-08-07T04:14:47.003Z,45
2016-08-07T04:16:32.141Z,50
2016-08-07T04:17:47.070Z,50
2016-08-07T04:19:02.052Z,55
2016-08-07T04:19:32.200Z,60
2016-08-07T04:20:47.139Z,75
2016-08-07T04:21:32.260Z,80
2016-08-07T04:22:32.286Z,80
2016-08-07T04:23:32.302Z,85
2016-08-07T04:24:32.333Z,90
2016-08-07T04:25:32.351Z,90
2016-08-07T04:26:32.376Z,85
2016-08-07T04:28:02.256Z,75
2016-08-07T04:28:32.440Z,75
2016-08-07T04:29:32.439Z,75
2016-08-07T04:30:47.399Z,70
2016-08-07T04:31:33.188Z,70
2016-08-07T04:32:32.530Z,65
2016-08-07T04:33:47.484Z,70
2016-08-07T04:34:33.296Z,75
2016-08-07T04:35:32.609Z,80
2016-08-07T04:36:32.775Z,85
2016-08-07T04:37:32.658Z,95
2016-08-07T04:38:33.370Z,95
2016-08-07T04:39:34.397Z,110
2016-08-07T04:40:32.735Z,115
2016-08-07T04:41:32.743Z,135
2016-08-07T04:42:32.784Z,145
2016-08-07T04:43:32.805Z,155
2016-08-07T04:44:47.759Z,150
2016-08-07T04:46:32.879Z,145
2016-08-07T04:47:33.610Z,140
2016-08-07T04:48:35.500Z,145
2016-08-07T04:49:47.887Z,150
2016-08-07T04:50:33.697Z,165
2016-08-07T04:51:33.005Z,180
2016-08-07T04:52:33.032Z,170
2016-08-07T04:53:33.064Z,200
2016-08-07T04:55:33.103Z,210
2016-08-07T04:56:33.135Z,220
2016-08-07T04:57:33.206Z,260
2016-08-07T04:58:33.179Z,405
2016-08-07T04:59:33.215Z,650
2016-08-07T05:00:48.175Z,450
2016-08-07T05:01:33.295Z,775
2016-08-07T05:02:48.221Z,405
2016-08-07T05:03:33.319Z,185
2016-08-07T05:04:48.254Z,810
2016-08-07T05:05:48.310Z,165
2016-08-07T05:06:33.396Z,170
2016-08-07T05:08:03.268Z,625
2016-08-07T05:08:33.452Z,170
2016-08-07T05:09:33.478Z,205
2016-08-07T05:10:48.423Z,1010
2016-08-07T05:11:33.558Z,1120
2016-08-07T05:12:33.550Z,1110
2016-08-07T05:13:33.571Z,1105
2016-08-07T05:14:33.601Z,1085
2016-08-07T05:15:33.766Z,250
2016-08-07T05:16:48.586Z,220
2016-08-07T05:17:48.614Z,735
2016-08-07T05:18:33.727Z,205
2016-08-07T05:19:48.669Z,180
2016-08-07T05:20:34.519Z,165
2016-08-07T05:21:48.726Z,165
2016-08-07T05:22:33.887Z,160
2016-08-07T05:23:33.876Z,160
2016-08-07T05:24:33.889Z,170
2016-08-07T05:25:33.929Z,175
2016-08-07T05:26:33.945Z,195
2016-08-07T05:28:34.704Z,1060
2016-08-07T05:29:34.034Z,510
2016-08-07T05:30:48.986Z,245
2016-08-07T05:31:34.087Z,1035
2016-08-07T05:32:34.122Z,840
2016-08-07T05:33:49.065Z,1140
2016-08-07T05:34:34.173Z,1100
2016-08-07T05:35:34.205Z,835
2016-08-07T05:36:49.158Z,1115
2016-08-07T05:37:49.178Z,1170
2016-08-07T05:38:34.289Z,1140
2016-08-07T05:40:04.161Z,1235
2016-08-07T05:40:34.346Z,1195
2016-08-07T05:41:34.381Z,1040
2016-08-07T05:42:34.400Z,1180
2016-08-07T05:43:49.359Z,1210
2016-08-07T05:44:34.468Z,325
2016-08-07T05:46:49.456Z,1225
2016-08-07T05:47:34.568Z,1170
2016-08-07T05:48:34.597Z,1275
2016-08-07T05:49:49.548Z,1315
2016-08-07T05:51:04.515Z,1295
2016-08-07T05:51:34.696Z,1315
2016-08-07T05:52:34.782Z,1320
2016-08-07T05:55:34.836Z,1315
2016-08-07T05:56:34.878Z,460
2016-08-07T05:57:34.897Z,1200
2016-08-07T05:58:34.942Z,1315
2016-08-07T05:59:36.523Z,1330
2016-08-07T06:00:35.036Z,1250
2016-08-07T06:01:49.949Z,1330
2016-08-07T06:02:35.063Z,1315
2016-08-07T06:03:35.095Z,1235
2016-08-07T06:04:50.751Z,1195
2016-08-07T06:05:35.552Z,1240
2016-08-07T06:06:50.136Z,1315
2016-08-07T06:07:35.239Z,1335
2016-08-07T06:08:50.199Z,1380
2016-08-07T06:09:35.336Z,1295
2016-08-07T06:10:35.339Z,1340
2016-08-07T06:11:35.374Z,1430
2016-08-07T06:12:52.477Z,1360
2016-08-07T06:13:36.041Z,1305
2016-08-07T06:14:50.400Z,1335
2016-08-07T06:15:35.512Z,1320
2016-08-07T06:16:35.545Z,1320
2016-08-07T06:17:35.582Z,1295
2016-08-07T06:18:35.613Z,1335
2016-08-07T06:19:35.643Z,1315
2016-08-07T06:20:35.691Z,1305
2016-08-07T06:21:35.731Z,1300
2016-08-07T06:22:35.759Z,1370
2016-08-07T06:23:35.796Z,1325
2016-08-07T06:24:35.837Z,1315
2016-08-07T06:25:35.867Z,1390
2016-08-07T06:26:35.964Z,1360
2016-08-07T06:27:51.570Z,1365
2016-08-07T06:28:35.968Z,1370
2016-08-07T06:29:35.998Z,1315
2016-08-07T06:30:36.034Z,1295
2016-08-07T06:32:36.121Z,1345
2016-08-07T06:33:36.144Z,1285
2016-08-07T06:34:37.239Z,1280
2016-08-07T06:35:51.155Z,1290
2016-08-07T06:36:36.255Z,1315
2016-08-07T06:37:37.121Z,1265
2016-08-07T06:38:51.263Z,1255
2016-08-07T06:39:51.285Z,1230
2016-08-07T06:40:51.339Z,1225
2016-08-07T06:41:36.440Z,1185
2016-08-07T06:42:36.523Z,1110
2016-08-07T06:43:51.649Z,1130
2016-08-07T06:44:36.548Z,1130
2016-08-07T06:45:36.575Z,1060
2016-08-07T06:46:51.541Z,970
2016-08-07T06:47:36.662Z,935
2016-08-07T06:48:36.692Z,915
2016-08-07T06:49:36.730Z,895
2016-08-07T06:50:36.771Z,830
2016-08-07T06:51:36.792Z,785
2016-08-07T06:52:36.863Z,745
2016-08-07T06:53:36.873Z,725
2016-08-07T06:54:37.609Z,705
2016-08-07T06:55:36.998Z,680
2016-08-07T06:57:06.832Z,645
2016-08-07T06:57:51.944Z,640
2016-08-07T06:58:37.096Z,630
2016-08-07T06:59:37.102Z,620
2016-08-07T07:00:37.122Z,620
2016-08-07T07:01:37.174Z,625
2016-08-07T07:02:37.201Z,635
2016-08-07T07:03:37.226Z,640
2016-08-07T07:04:37.279Z,660
2016-08-07T07:05:37.309Z,665
2016-08-07T07:06:37.340Z,700
2016-08-07T07:07:38.214Z,740
2016-08-07T07:08:37.495Z,895
2016-08-07T07:09:37.492Z,1445
2016-08-07T07:10:52.416Z,1665
2016-08-07T07:11:37.682Z,1785
2016-08-07T07:12:52.489Z,1955
2016-08-07T07:13:37.593Z,1815
2016-08-07T07:14:37.638Z,1655
2016-08-07T07:15:52.603Z,1525
2016-08-07T07:16:37.729Z,1480
2016-08-07T07:17:37.737Z,1410
2016-08-07T07:18:37.784Z,1415
2016-08-07T07:19:37.820Z,1110
2016-08-07T07:20:52.788Z,355
2016-08-07T07:21:52.817Z,1245
2016-08-07T07:23:37.955Z,1205
2016-08-07T07:24:38.057Z,250
2016-08-07T07:25:38.297Z,855
2016-08-07T07:26:38.068Z,260
2016-08-07T07:27:38.111Z,1305
2016-08-07T07:28:53.082Z,1240
2016-08-07T07:29:39.120Z,850
2016-08-07T07:30:38.227Z,265
2016-08-07T07:31:38.288Z,240
2016-08-07T07:32:53.268Z,1240
2016-08-07T07:33:38.327Z,1220
2016-08-07T07:34:38.365Z,1070
2016-08-07T07:35:38.397Z,1155
2016-08-07T07:36:38.427Z,1185
2016-08-07T07:38:38.503Z,265
2016-08-07T07:39:53.466Z,395
2016-08-07T07:41:53.560Z,405
2016-08-07T07:42:38.661Z,1210
2016-08-07T07:43:54.303Z,1220
2016-08-07T07:44:38.715Z,1220
2016-08-07T07:45:53.669Z,230
2016-08-07T07:46:38.782Z,295
2016-08-07T08:02:33.776Z,990
2016-08-07T08:03:33.825Z,965
2016-08-07T08:04:33.901Z,1005
2016-08-07T08:05:48.807Z,995
2016-08-07T08:06:33.926Z,1000
2016-08-07T08:07:33.948Z,990
2016-08-07T08:08:48.914Z,965
2016-08-07T08:09:48.949Z,875
2016-08-07T08:10:49.033Z,850
2016-08-07T08:11:34.108Z,955
2016-08-07T08:12:49.055Z,420
2016-08-07T08:13:34.157Z,195
2016-08-07T08:14:49.113Z,175
2016-08-07T08:15:34.225Z,180
2016-08-07T08:16:34.259Z,860
2016-08-07T08:18:34.328Z,830
2016-08-07T08:19:34.377Z,870
2016-08-07T08:20:34.392Z,585
2016-08-07T08:21:49.359Z,850
2016-08-07T08:23:49.433Z,675
2016-08-07T08:24:34.539Z,830
2016-08-07T08:26:34.629Z,800
2016-08-07T08:27:34.641Z,800
2016-08-07T08:28:49.601Z,385
2016-08-07T08:29:34.721Z,220
2016-08-07T08:30:34.764Z,195
2016-08-07T08:31:34.789Z,195
2016-08-07T08:32:34.815Z,725
2016-08-07T08:33:34.850Z,300
2016-08-07T08:34:34.897Z,240
2016-08-07T08:35:34.913Z,225
2016-08-07T08:36:34.947Z,535
2016-08-07T08:37:34.984Z,675
2016-08-07T08:38:35.018Z,660
2016-08-07T08:39:35.756Z,655
2016-08-07T08:40:35.087Z,650
2016-08-07T08:41:35.120Z,640
2016-08-07T08:42:35.167Z,620
2016-08-07T08:43:50.120Z,620
2016-08-07T08:44:35.246Z,220
2016-08-07T08:45:35.951Z,620
2016-08-07T08:46:50.231Z,610
2016-08-07T08:47:35.330Z,350
2016-08-07T08:48:35.372Z,610
2016-08-07T08:49:50.331Z,580
2016-08-07T08:50:35.441Z,565
2016-08-07T08:51:35.473Z,565
2016-08-07T08:52:35.508Z,560
2016-08-07T08:53:35.539Z,550
2016-08-07T08:54:35.737Z,540
2016-08-07T08:55:35.612Z,525
2016-08-07T08:56:35.637Z,530
2016-08-07T08:57:35.672Z,525
2016-08-07T08:59:35.795Z,515
2016-08-07T09:00:35.781Z,515
2016-08-07T09:01:35.821Z,500
2016-08-07T09:02:35.852Z,400
2016-08-07T09:03:35.894Z,210
2016-08-07T09:05:35.968Z,215
2016-08-07T09:06:35.987Z,230
2016-08-07T09:07:36.027Z,235
2016-08-07T09:08:36.056Z,255
2016-08-07T09:09:36.097Z,240
2016-08-07T09:10:36.131Z,190
2016-08-07T09:11:36.168Z,505
2016-08-07T09:12:36.180Z,220
2016-08-07T09:13:51.205Z,515
2016-08-07T09:14:36.256Z,500
2016-08-07T09:15:51.228Z,395
2016-08-07T09:16:51.270Z,525
2016-08-07T09:17:37.055Z,515
2016-08-07T09:18:36.399Z,510
2016-08-07T09:19:51.361Z,235
2016-08-07T09:20:36.494Z,430
2016-08-07T09:21:36.496Z,520
2016-08-07T09:22:36.531Z,295
2016-08-07T09:23:36.564Z,490
2016-08-07T09:24:36.598Z,480
2016-08-07T09:25:51.567Z,440
2016-08-07T09:26:36.673Z,230
2016-08-07T09:27:36.700Z,245
2016-08-07T09:28:37.434Z,425
2016-08-07T09:29:51.694Z,430
2016-08-07T09:31:06.657Z,415
2016-08-07T09:31:51.772Z,235
2016-08-07T09:32:36.879Z,230
2016-08-07T09:33:36.898Z,215
2016-08-07T09:34:36.950Z,215
2016-08-07T09:35:36.974Z,385
2016-08-07T09:36:37.701Z,385
2016-08-07T09:37:37.744Z,385
2016-08-07T09:38:52.015Z,200
2016-08-07T09:39:37.113Z,195
2016-08-07T09:40:37.141Z,195
2016-08-07T09:41:52.098Z,195
2016-08-07T09:42:37.206Z,205
2016-08-07T09:43:37.253Z,365
2016-08-07T09:44:37.275Z,375
2016-08-07T09:45:37.314Z,380
2016-08-07T09:46:37.343Z,385
2016-08-07T09:47:52.303Z,225
2016-08-07T09:48:37.418Z,185
2016-08-07T09:49:37.447Z,175
2016-08-07T09:50:37.478Z,180
2016-08-07T09:51:37.507Z,185
2016-08-07T09:52:37.543Z,190
2016-08-07T09:54:07.438Z,200
2016-08-07T09:54:37.606Z,210
2016-08-07T09:55:37.643Z,210
2016-08-07T09:56:37.678Z,205
2016-08-07T09:57:37.722Z,190
2016-08-07T09:58:52.668Z,185
2016-08-07T09:59:52.694Z,180
2016-08-07T10:00:52.735Z,180
2016-08-07T10:01:37.840Z,180
2016-08-07T10:02:37.871Z,185
2016-08-07T10:04:37.946Z,200
2016-08-07T10:05:37.968Z,200
2016-08-07T10:06:38.202Z,255
2016-08-07T10:07:52.964Z,380
2016-08-07T10:08:38.073Z,370
2016-08-07T10:10:38.135Z,215
2016-08-07T10:11:38.169Z,205
2016-08-07T10:12:38.205Z,195
2016-08-07T10:13:38.227Z,190
2016-08-07T10:14:38.305Z,185
2016-08-07T10:15:38.284Z,355
2016-08-07T10:16:53.252Z,205
2016-08-07T10:17:53.272Z,210
2016-08-07T10:18:53.311Z,310
2016-08-07T10:19:38.423Z,230
2016-08-07T10:20:53.375Z,205
2016-08-07T10:21:38.485Z,200
2016-08-07T10:22:38.520Z,235
2016-08-07T10:23:53.475Z,195
2016-08-07T10:24:38.582Z,195
2016-08-07T10:25:38.608Z,195
2016-08-07T10:26:38.654Z,200
2016-08-07T10:27:38.678Z,225
2016-08-07T10:28:38.714Z,350
2016-08-07T10:29:38.757Z,355
2016-08-07T10:30:53.703Z,185
2016-08-07T10:31:40.208Z,180
2016-08-07T10:32:38.845Z,170
2016-08-07T10:33:38.862Z,160
2016-08-07T10:34:53.819Z,305
2016-08-07T10:35:38.936Z,305
2016-08-07T10:36:38.953Z,305
2016-08-07T10:37:39.009Z,305
2016-08-07T10:38:39.034Z,310
2016-08-07T10:40:54.031Z,140
2016-08-07T10:41:39.152Z,140
2016-08-07T10:42:39.162Z,140
2016-08-07T10:43:39.179Z,135
2016-08-07T10:45:09.077Z,150
2016-08-07T10:45:54.171Z,220
2016-08-07T10:46:39.285Z,265
2016-08-07T10:47:39.319Z,215
2016-08-07T10:49:09.200Z,210
2016-08-07T10:50:54.339Z,315
2016-08-07T10:51:54.362Z,250
2016-08-07T10:52:54.407Z,270
2016-08-07T10:53:54.430Z,265
2016-08-07T10:54:39.528Z,295
2016-08-07T10:55:39.569Z,270
2016-08-07T10:56:54.523Z,270
2016-08-07T10:57:39.617Z,285
2016-08-07T10:58:39.664Z,270
2016-08-07T10:59:39.688Z,265
2016-08-07T11:00:39.719Z,265
2016-08-07T11:01:39.750Z,280
2016-08-07T11:02:39.797Z,265
2016-08-07T11:03:39.815Z,255
2016-08-07T11:04:54.775Z,250
2016-08-07T11:05:39.870Z,250
2016-08-07T11:07:09.817Z,245
2016-08-07T11:08:09.794Z,245
2016-08-07T11:08:55.727Z,250
2016-08-07T11:09:40.052Z,255
2016-08-07T11:10:40.036Z,250
2016-08-07T11:11:40.064Z,240
2016-08-07T11:12:40.102Z,240
2016-08-07T11:13:55.072Z,260
2016-08-07T11:14:40.156Z,250
2016-08-07T11:15:40.247Z,250
2016-08-07T11:16:40.226Z,245
2016-08-07T11:17:40.258Z,250
2016-08-07T11:18:40.297Z,325
2016-08-07T11:19:55.245Z,255
2016-08-07T11:21:10.208Z,235
2016-08-07T11:21:40.394Z,230
2016-08-07T11:22:55.335Z,220
2016-08-07T11:23:41.286Z,215
2016-08-07T11:24:55.398Z,220
2016-08-07T11:25:40.509Z,230
2016-08-07T11:26:40.548Z,230
2016-08-07T11:27:40.580Z,230
2016-08-07T11:28:40.609Z,290
2016-08-07T11:29:40.641Z,285
2016-08-07T11:30:40.661Z,245
2016-08-07T11:31:40.703Z,305
2016-08-07T11:32:55.657Z,255
2016-08-07T11:33:55.692Z,285
2016-08-07T11:34:40.788Z,245
2016-08-07T11:35:40.825Z,235
2016-08-07T11:36:40.896Z,235
2016-08-07T11:37:40.881Z,305
2016-08-07T11:38:55.839Z,280
2016-08-07T11:39:40.950Z,255
2016-08-07T11:40:40.984Z,305
2016-08-07T11:41:41.016Z,280
2016-08-07T11:42:41.063Z,250
2016-08-07T11:43:41.082Z,265
2016-08-07T11:44:41.112Z,245
2016-08-07T11:45:41.141Z,280
2016-08-07T11:46:41.176Z,220
2016-08-07T11:47:41.226Z,275
2016-08-07T11:48:41.238Z,270
2016-08-07T11:49:41.264Z,270
2016-08-07T11:50:41.286Z,210
2016-08-07T11:51:41.316Z,205
2016-08-07T11:52:41.364Z,250
2016-08-07T11:53:57.156Z,240
2016-08-07T11:54:41.425Z,235
2016-08-07T11:55:41.450Z,220
2016-08-07T11:56:41.492Z,205
2016-08-07T11:57:41.520Z,200
2016-08-07T11:58:41.552Z,195
2016-08-07T11:59:41.621Z,185
2016-08-07T12:00:56.537Z,180
2016-08-07T12:01:41.642Z,180
2016-08-07T12:02:41.677Z,180
2016-08-07T12:03:41.711Z,180
2016-08-07T12:04:41.742Z,185
2016-08-07T12:05:41.769Z,185
2016-08-07T12:06:56.725Z,190
2016-08-07T12:07:41.840Z,195
2016-08-07T12:08:41.873Z,195
2016-08-07T12:09:41.894Z,195
2016-08-07T12:10:41.922Z,190
2016-08-07T12:11:41.971Z,185
2016-08-07T12:12:42.101Z,180
2016-08-07T12:13:42.017Z,180
2016-08-07T12:14:42.039Z,170
2016-08-07T12:16:42.105Z,165
2016-08-07T12:17:42.150Z,160
2016-08-07T12:18:42.187Z,165
2016-08-07T12:19:42.206Z,160
2016-08-07T12:20:57.157Z,165
2016-08-07T12:21:42.279Z,165
2016-08-07T12:22:42.990Z,165
2016-08-07T12:23:42.325Z,160
2016-08-07T12:24:43.050Z,160
2016-08-07T12:25:57.317Z,160
2016-08-07T12:26:42.422Z,165
2016-08-07T12:27:57.380Z,160
2016-08-07T12:28:42.485Z,165
2016-08-07T12:29:57.448Z,165
2016-08-07T12:30:57.471Z,160
2016-08-07T12:31:42.576Z,160
2016-08-07T12:32:42.605Z,165
2016-08-07T12:33:42.632Z,165
2016-08-07T12:34:42.667Z,165
2016-08-07T12:35:57.621Z,165
2016-08-07T12:36:42.729Z,170
2016-08-07T12:37:57.680Z,165
2016-08-07T12:38:42.800Z,165
2016-08-07T12:39:57.750Z,170
2016-08-07T12:40:42.858Z,170
2016-08-07T12:41:57.807Z,175
2016-08-07T12:42:42.916Z,180
2016-08-07T12:43:42.963Z,190
2016-08-07T12:44:42.969Z,195
2016-08-07T12:45:43.002Z,200
2016-08-07T12:46:43.038Z,195
2016-08-07T12:49:43.132Z,175
2016-08-07T12:50:43.166Z,220
2016-08-07T12:51:43.198Z,180
2016-08-07T12:52:43.219Z,200
2016-08-07T12:53:43.254Z,190
2016-08-07T12:54:43.321Z,215
2016-08-07T12:55:58.232Z,200
2016-08-07T12:56:43.348Z,200
2016-08-07T12:57:58.298Z,210
2016-08-07T12:58:58.323Z,220
2016-08-07T12:59:44.400Z,230
2016-08-07T13:00:43.468Z,240
2016-08-07T13:01:43.501Z,260
2016-08-07T13:02:43.539Z,235
2016-08-07T13:03:43.554Z,270
2016-08-07T13:04:43.602Z,270
2016-08-07T13:05:43.671Z,250
2016-08-07T13:06:43.659Z,250
2016-08-07T13:07:43.683Z,245
2016-08-07T13:08:43.712Z,280
2016-08-07T13:10:13.599Z,255
2016-08-07T13:10:43.775Z,240
2016-08-07T13:11:43.793Z,215
2016-08-07T13:13:58.841Z,255
2016-08-07T13:14:43.897Z,265
2016-08-07T13:15:44.624Z,240
2016-08-07T13:16:43.961Z,240
2016-08-07T13:17:43.991Z,225
2016-08-07T13:18:58.952Z,225
2016-08-07T13:19:44.056Z,220
2016-08-07T13:20:44.143Z,225
2016-08-07T13:21:44.119Z,205
2016-08-07T13:22:44.152Z,195
2016-08-07T13:23:44.186Z,190
2016-08-07T13:24:44.910Z,190
2016-08-07T13:25:59.174Z,180
2016-08-07T13:26:59.209Z,190
2016-08-07T13:27:59.228Z,185
2016-08-07T13:28:59.318Z,165
2016-08-07T13:30:44.415Z,155
2016-08-07T13:31:44.428Z,185
2016-08-07T13:32:44.471Z,190
2016-08-07T13:33:44.512Z,185
2016-08-07T13:34:45.227Z,185
2016-08-07T13:35:44.555Z,180
2016-08-07T13:36:59.518Z,180
2016-08-07T13:37:44.618Z,180
2016-08-07T13:39:44.699Z,175
2016-08-07T13:40:44.726Z,175
2016-08-07T13:41:44.742Z,170
2016-08-07T13:42:44.769Z,175
2016-08-07T13:43:44.813Z,170
2016-08-07T13:44:44.829Z,170
2016-08-07T13:45:59.787Z,170
2016-08-07T13:46:44.906Z,170
2016-08-07T13:47:44.926Z,165
2016-08-07T13:48:44.951Z,165
2016-08-07T13:49:44.983Z,165
2016-08-07T13:50:45.005Z,165
2016-08-07T13:51:45.042Z,165
2016-08-07T13:52:45.082Z,165
2016-08-07T13:54:00.029Z,165
2016-08-07T13:54:45.142Z,165
2016-08-07T13:56:45.191Z,165
2016-08-07T13:57:45.239Z,165
2016-08-07T13:58:45.262Z,165
2016-08-07T13:59:45.283Z,165
2016-08-07T14:01:00.249Z,165
2016-08-07T14:01:45.347Z,165
2016-08-07T14:02:45.379Z,165
2016-08-07T14:03:45.414Z,165
2016-08-07T14:05:00.367Z,165
2016-08-07T14:05:46.962Z,165
2016-08-07T14:06:45.494Z,165
2016-08-07T14:09:45.591Z,165
2016-08-07T14:10:45.628Z,165
2016-08-07T14:12:45.689Z,160
2016-08-07T14:14:46.431Z,165
2016-08-07T14:15:45.771Z,155
2016-08-07T14:17:00.778Z,165
2016-08-07T14:17:45.835Z,165
2016-08-07T14:18:45.870Z,165
2016-08-07T14:19:45.902Z,165
2016-08-07T14:20:45.928Z,165
2016-08-07T14:21:45.948Z,160
2016-08-07T14:22:45.980Z,165
2016-08-07T14:23:46.012Z,155
2016-08-07T14:25:01.026Z,160
2016-08-07T14:26:01.003Z,165
2016-08-07T14:26:46.111Z,165
2016-08-07T14:27:46.141Z,165
2016-08-07T14:29:46.202Z,165
2016-08-07T14:31:01.150Z,165
2016-08-07T14:31:46.357Z,160
2016-08-07T14:33:01.222Z,160
2016-08-07T14:35:01.326Z,160
2016-08-07T14:35:46.384Z,160
2016-08-07T14:36:46.415Z,165
2016-08-07T14:37:46.437Z,160
2016-08-07T14:38:46.470Z,160
2016-08-07T14:39:46.743Z,155
2016-08-07T14:40:46.521Z,160
2016-08-07T14:41:46.554Z,165
2016-08-07T14:42:46.592Z,160
2016-08-07T14:43:46.625Z,155
2016-08-07T14:44:46.655Z,160
2016-08-07T14:45:47.391Z,160
2016-08-07T14:46:46.718Z,155
2016-08-07T14:48:01.668Z,155
2016-08-07T14:49:16.622Z,155
2016-08-07T14:49:46.825Z,155
2016-08-07T14:51:01.749Z,150
2016-08-07T14:52:01.787Z,150
2016-08-07T14:52:46.897Z,155
2016-08-07T14:53:46.924Z,150
2016-08-07T14:54:47.781Z,155
2016-08-07T14:56:47.021Z,150
2016-08-07T14:57:47.047Z,155
2016-08-07T14:58:47.082Z,150
2016-08-07T15:00:02.023Z,155
2016-08-07T15:00:47.136Z,155
2016-08-07T15:02:02.085Z,150
2016-08-07T15:03:02.145Z,155
2016-08-07T15:04:02.144Z,155
2016-08-07T15:04:47.254Z,155
2016-08-07T15:05:47.288Z,155
2016-08-07T15:06:47.324Z,155
2016-08-07T15:08:02.272Z,155
2016-08-07T15:08:47.385Z,155
2016-08-07T15:09:47.411Z,155
2016-08-07T15:10:47.438Z,150
2016-08-07T15:11:47.464Z,155
2016-08-07T15:12:47.498Z,155
2016-08-07T15:13:47.521Z,150